Time;durP1;ratioP1;P1;durP2;ratioP2;P2;SDS_P1;SDS_P2;PMS_P1;PMS_P2;Temp;Humidity;BMP_temperature;BMP_pressure;BME280_temperature;BME280_humidity;BME280_pressure;Samples;Min_cycle;Max_cycle;Signal;HPM_P1;HPM_P2
2023/02/02 00:02:05;;;;;;;7.83;4.33;;;5.10;99.90;;;5.98;88.04;98465.63;5226992;28;20224;-84
2023/02/02 00:04:39;;;;;;;8.80;4.00;;;5.20;99.90;;;5.82;88.78;98468.47;5218776;28;20592;-84
2023/02/02 00:07:12;;;;;;;9.30;4.63;;;5.10;99.90;;;5.74;89.54;98473.63;5229214;28;20215;-84
2023/02/02 00:09:45;;;;;;;8.27;4.47;;;5.10;99.90;;;5.87;89.54;98467.22;5232074;28;20761;-83
2023/02/02 00:12:19;;;;;;;12.17;5.13;;;5.20;99.90;;;5.92;90.10;98452.34;5230198;28;20303;-85
2023/02/02 00:14:52;;;;;;;7.13;3.97;;;5.30;99.90;;;5.79;90.54;98455.50;5230613;28;20588;-84
2023/02/02 00:17:25;;;;;;;8.97;5.00;;;5.20;99.90;;;5.64;91.19;98459.28;5225281;28;20220;-85
2023/02/02 00:19:58;;;;;;;10.37;5.03;;;5.00;99.90;;;5.57;92.28;98462.03;5232652;28;20630;-83
2023/02/02 00:22:32;;;;;;;9.47;4.80;;;5.00;99.90;;;5.63;92.32;98465.97;5233859;28;20304;-80
2023/02/02 00:25:06;;;;;;;10.97;4.87;;;5.00;99.90;;;5.68;91.50;98458.78;5224335;28;20333;-80
2023/02/02 00:27:41;;;;;;;13.47;6.13;;;5.00;99.90;;;5.65;92.15;98468.66;5228216;28;20206;-82
2023/02/02 00:30:15;;;;;;;9.80;4.67;;;5.00;99.90;;;5.70;91.64;98464.88;5233698;28;20200;-84
2023/02/02 00:32:49;;;;;;;11.20;5.20;;;5.10;99.90;;;5.60;93.03;98472.44;5225557;28;20296;-82
2023/02/02 00:35:22;;;;;;;9.27;5.53;;;5.00;99.90;;;5.49;93.76;98478.22;5231126;28;20653;-83
2023/02/02 00:37:56;;;;;;;8.10;4.57;;;4.90;99.90;;;5.56;93.42;98465.34;5226449;28;20292;-84
2023/02/02 00:40:29;;;;;;;7.60;4.37;;;4.90;99.90;;;5.49;94.19;98457.97;5225351;28;20264;-86
2023/02/02 00:43:03;;;;;;;8.27;4.63;;;4.80;99.90;;;5.58;92.38;98464.72;5226040;28;20280;-84
2023/02/02 00:45:36;;;;;;;9.30;5.70;;;5.00;99.90;;;5.56;93.56;98457.75;5231854;28;20670;-84
2023/02/02 00:48:10;;;;;;;11.03;4.67;;;5.00;99.90;;;5.63;93.28;98465.97;5230465;28;20779;-86
2023/02/02 00:50:43;;;;;;;11.93;4.40;;;5.00;99.90;;;5.61;93.81;98461.56;5227794;28;20212;-83
2023/02/02 00:53:16;;;;;;;8.47;4.10;;;4.90;99.90;;;5.54;93.96;98464.31;5227755;28;20221;-85
2023/02/02 00:55:49;;;;;;;9.37;4.53;;;4.90;99.90;;;5.37;95.30;98463.75;5227818;28;20285;-85
2023/02/02 00:58:24;;;;;;;7.23;4.27;;;4.80;99.90;;;5.39;95.61;98461.34;5229894;28;20625;-83
2023/02/02 01:00:57;;;;;;;7.90;4.47;;;4.70;99.90;;;5.34;95.91;98468.53;5224636;28;20208;-83
2023/02/02 01:03:30;;;;;;;8.00;4.30;;;4.70;99.90;;;5.57;94.99;98468.00;5221315;28;20220;-84
2023/02/02 01:06:03;;;;;;;7.40;4.73;;;4.80;99.90;;;5.36;96.34;98463.63;5226193;28;20224;-83
2023/02/02 01:08:36;;;;;;;9.53;4.90;;;4.70;99.90;;;5.45;95.30;98463.53;5226612;28;20211;-84
2023/02/02 01:11:10;;;;;;;7.70;4.47;;;4.70;99.90;;;5.33;97.00;98463.38;5229734;28;20284;-83
2023/02/02 01:13:44;;;;;;;7.33;3.87;;;4.70;99.90;;;5.25;97.84;98446.59;5226427;28;20303;-83
2023/02/02 01:16:17;;;;;;;6.90;4.03;;;4.60;99.90;;;5.29;97.44;98448.63;5220753;28;20193;-84
2023/02/02 01:18:51;;;;;;;7.47;4.10;;;4.60;99.90;;;5.29;97.52;98464.72;5221505;28;20756;-83
2023/02/02 01:21:24;;;;;;;9.37;4.17;;;4.60;99.90;;;5.41;97.03;98464.91;5225789;28;20587;-82
2023/02/02 01:23:57;;;;;;;7.33;4.13;;;4.60;99.90;;;5.30;97.79;98466.50;5225264;28;20593;-86
2023/02/02 01:26:30;;;;;;;6.77;4.23;;;4.60;99.90;;;5.34;97.23;98463.47;5223023;28;20221;-82
2023/02/02 01:29:05;;;;;;;8.37;4.33;;;4.60;99.90;;;5.21;98.10;98455.59;5226831;28;20232;-84
2023/02/02 01:31:38;;;;;;;8.37;3.77;;;4.60;99.90;;;5.32;97.80;98462.47;5219322;28;20200;-84
2023/02/02 01:34:11;;;;;;;9.63;4.13;;;4.60;99.90;;;5.25;97.62;98460.16;5221100;28;20655;-83
2023/02/02 01:36:44;;;;;;;5.10;3.90;;;4.70;99.90;;;5.31;97.71;98468.28;5225562;28;20198;-85
2023/02/02 01:39:17;;;;;;;5.40;4.07;;;4.60;99.90;;;5.30;97.96;98463.97;5223934;28;20212;-84
2023/02/02 01:41:50;;;;;;;11.57;4.40;;;4.60;99.90;;;5.34;97.51;98455.00;5222946;28;20221;-83
2023/02/02 01:45:09;;;;;;;6.80;4.23;;;4.70;99.90;;;5.39;97.81;98458.81;5228046;28;20240;-83
2023/02/02 01:47:47;;;;;;;9.03;4.23;;;4.70;99.90;;;5.32;98.57;98459.94;5219371;28;20197;-83
2023/02/02 01:50:25;;;;;;;7.97;4.37;;;4.60;99.90;;;5.29;99.05;98459.66;5222021;28;20202;-84
2023/02/02 01:53:00;;;;;;;7.03;4.07;;;4.70;99.90;;;5.32;98.45;98459.94;5226902;28;20311;-82
2023/02/02 01:55:37;;;;;;;7.43;3.87;;;4.80;99.90;;;5.26;98.00;98464.44;5224925;28;20228;-83
2023/02/02 01:58:16;;;;;;;5.60;4.00;;;4.60;99.90;;;5.33;98.17;98466.78;5213689;28;20201;-83
2023/02/02 02:00:51;;;;;;;9.53;4.50;;;4.70;99.90;;;5.22;99.14;98472.56;5220520;28;20193;-83
2023/02/02 02:03:30;;;;;;;6.17;4.23;;;4.70;99.90;;;5.16;100.00;98474.56;5225100;28;20224;-84
2023/02/02 02:06:08;;;;;;;8.17;4.10;;;4.60;99.90;;;5.18;100.00;98476.47;5216612;28;20308;-84
2023/02/02 02:08:48;;;;;;;4.73;3.70;;;4.60;99.90;;;5.13;100.00;98471.75;5225815;28;20197;-84
2023/02/02 02:11:22;;;;;;;6.40;3.90;;;4.50;99.90;;;5.24;100.00;98465.09;5222722;28;20596;-81
2023/02/02 02:17:13;;;;;;;5.87;3.60;;;4.50;99.90;;;5.26;100.00;98456.84;5217446;28;20226;-84
2023/02/02 02:27:44;;;;;;;5.67;3.80;;;4.60;99.90;;;5.19;100.00;98460.50;5191764;28;20224;-84
2023/02/02 02:30:41;;;;;;;6.90;4.20;;;4.50;99.90;;;5.08;100.00;98467.94;5214490;28;20198;-84
2023/02/02 02:33:23;;;;;;;6.10;3.67;;;4.40;99.90;;;5.06;100.00;98464.34;5225901;28;20320;-84
2023/02/02 02:36:04;;;;;;;5.13;3.97;;;4.40;99.90;;;5.09;100.00;98460.44;5224622;28;20262;-84
2023/02/02 02:38:43;;;;;;;6.87;3.80;;;4.40;99.90;;;5.01;100.00;98456.38;5223964;28;20215;-85
2023/02/02 02:41:22;;;;;;;5.80;3.97;;;4.40;99.90;;;5.20;100.00;98459.75;5218640;28;20220;-83
2023/02/02 02:44:00;;;;;;;8.17;4.27;;;4.50;99.90;;;5.00;100.00;98454.56;5225205;28;20200;-85
2023/02/02 02:46:34;;;;;;;5.43;4.23;;;4.40;99.90;;;4.99;100.00;98451.94;5218222;28;20229;-83
2023/02/02 02:49:11;;;;;;;6.27;3.97;;;4.40;99.90;;;5.19;100.00;98444.41;5221202;28;20201;-84
2023/02/02 02:51:48;;;;;;;6.73;3.67;;;4.50;99.90;;;5.13;100.00;98452.38;5225631;28;20224;-83
2023/02/02 02:54:25;;;;;;;4.60;3.43;;;4.50;99.90;;;5.03;100.00;98448.91;5222109;28;20300;-84
2023/02/02 02:57:22;;;;;;;6.73;3.57;;;4.50;99.90;;;5.11;100.00;98458.06;5220626;28;20197;-85
2023/02/02 03:00:09;;;;;;;9.13;3.90;;;4.50;99.90;;;4.98;100.00;98456.09;5218570;28;20704;-84
2023/02/02 03:02:49;;;;;;;6.17;4.13;;;4.40;99.90;;;5.08;100.00;98467.94;5223543;28;20610;-84
2023/02/02 03:05:33;;;;;;;5.30;3.90;;;4.40;99.90;;;5.00;100.00;98467.25;5224386;28;20221;-84
2023/02/02 03:08:12;;;;;;;4.80;3.70;;;4.40;99.90;;;5.08;100.00;98452.72;5223995;28;20623;-83
2023/02/02 03:10:46;;;;;;;4.87;3.50;;;4.40;99.90;;;5.17;100.00;98451.00;5219580;28;20197;-83
2023/02/02 03:13:20;;;;;;;6.67;3.67;;;4.50;99.90;;;5.22;100.00;98444.69;5217251;28;20596;-82
2023/02/02 03:15:53;;;;;;;4.83;3.80;;;4.60;99.90;;;5.12;100.00;98457.28;5216941;28;20563;-83
2023/02/02 03:18:30;;;;;;;9.87;3.97;;;4.60;99.90;;;5.11;100.00;98458.06;5217719;28;20212;-83
2023/02/02 03:21:05;;;;;;;7.20;4.03;;;4.50;99.90;;;5.17;100.00;98448.44;5222408;28;20220;-82
2023/02/02 03:23:38;;;;;;;4.77;3.30;;;4.50;99.90;;;5.15;100.00;98465.16;5218202;28;20793;-83
2023/02/02 03:26:11;;;;;;;4.70;4.30;;;4.50;99.90;;;5.11;100.00;98463.13;5223365;28;20709;-82
2023/02/02 03:28:44;;;;;;;4.30;3.83;;;4.50;99.90;;;5.11;100.00;98458.06;5223330;28;20206;-83
2023/02/02 03:31:18;;;;;;;4.83;3.80;;;4.40;99.90;;;5.03;100.00;98461.56;5220606;28;20575;-82
2023/02/02 03:33:51;;;;;;;4.83;3.90;;;4.40;99.90;;;5.01;100.00;98460.53;5217996;28;20208;-82
2023/02/02 03:36:26;;;;;;;7.57;4.10;;;4.40;99.90;;;5.19;100.00;98472.28;5213756;28;20200;-83
2023/02/02 03:38:59;;;;;;;6.63;4.37;;;4.40;99.90;;;5.13;100.00;98470.09;5224825;28;20292;-82
2023/02/02 03:41:32;;;;;;;5.17;3.77;;;4.40;99.90;;;5.11;100.00;98469.06;5216536;28;20194;-83
2023/02/02 03:44:06;;;;;;;6.20;3.80;;;4.40;99.90;;;5.11;100.00;98469.06;5221081;28;20233;-83
2023/02/02 03:46:39;;;;;;;5.30;3.57;;;4.40;99.90;;;5.16;100.00;98485.56;5219777;28;20221;-83
2023/02/02 03:49:12;;;;;;;7.10;4.10;;;4.50;99.90;;;5.12;100.00;98480.09;5216063;28;20256;-81
2023/02/02 03:51:46;;;;;;;6.93;3.70;;;4.40;99.90;;;5.08;100.00;98478.06;5216762;28;20221;-81
2023/02/02 03:54:19;;;;;;;7.40;4.03;;;4.40;99.90;;;5.15;100.00;98486.34;5222624;28;20209;-81
2023/02/02 03:56:52;;;;;;;7.63;4.50;;;4.40;99.90;;;5.08;100.00;98473.88;5219966;28;20280;-81
2023/02/02 03:59:25;;;;;;;6.30;4.03;;;4.40;99.90;;;5.17;100.00;98479.75;5222137;28;20237;-81
2023/02/02 04:01:58;;;;;;;7.97;3.60;;;4.50;99.90;;;5.17;100.00;98476.31;5220595;28;20229;-81
2023/02/02 04:04:32;;;;;;;7.13;4.10;;;4.70;99.90;;;5.14;100.00;98473.53;5218252;28;20212;-83
2023/02/02 04:07:06;;;;;;;6.10;3.50;;;4.50;99.90;;;5.06;100.00;98474.50;5223805;28;20217;-81
2023/02/02 04:09:39;;;;;;;5.83;3.83;;;4.50;99.90;;;5.05;100.00;98485.38;5222304;28;20203;-80
2023/02/02 04:12:12;;;;;;;6.03;4.03;;;4.60;99.90;;;4.96;100.00;98482.94;5220974;28;20229;-82
2023/02/02 04:14:45;;;;;;;8.30;4.20;;;4.50;99.90;;;4.93;100.00;98483.56;5217844;28;20522;-81
2023/02/02 04:17:18;;;;;;;7.60;4.37;;;4.40;99.90;;;5.16;100.00;98489.75;5217175;28;20205;-81
2023/02/02 04:19:56;;;;;;;10.77;4.30;;;4.50;99.90;;;5.14;100.00;98486.19;5225510;28;20197;-83
2023/02/02 04:22:31;;;;;;;6.50;4.10;;;4.50;99.90;;;5.09;100.00;98484.88;5221466;28;20220;-82
2023/02/02 04:25:05;;;;;;;9.13;4.20;;;4.50;99.90;;;5.13;100.00;98487.84;5224844;28;20280;-81
2023/02/02 04:27:38;;;;;;;6.03;4.23;;;4.50;99.90;;;5.14;100.00;98486.19;5225760;28;20636;-82
2023/02/02 04:30:12;;;;;;;7.07;3.97;;;4.50;99.90;;;5.19;100.00;98492.56;5222111;28;20217;-82
2023/02/02 04:32:46;;;;;;;8.53;4.10;;;4.40;99.90;;;5.18;100.00;98485.72;5222265;28;20213;-82
2023/02/02 04:35:19;;;;;;;8.87;3.90;;;4.40;99.90;;;5.13;100.00;98494.56;5223313;28;20292;-82
2023/02/02 04:37:55;;;;;;;6.03;3.80;;;4.40;99.90;;;4.97;100.00;98490.66;5224961;28;20197;-82
2023/02/02 04:40:28;;;;;;;6.00;4.03;;;4.40;99.90;;;5.06;100.00;98494.75;5224793;28;20803;-79
2023/02/02 04:43:01;;;;;;;4.73;3.60;;;4.40;99.90;;;5.17;100.00;98506.72;5216655;28;20253;-82
2023/02/02 04:45:35;;;;;;;6.70;4.00;;;4.40;99.90;;;5.19;100.00;98512.84;5221268;28;20662;-82
2023/02/02 04:48:08;;;;;;;5.63;3.67;;;4.40;99.90;;;5.21;100.00;98516.41;5223775;28;20221;-84
2023/02/02 04:50:41;;;;;;;5.83;3.50;;;4.50;99.90;;;5.10;100.00;98512.03;5222615;28;20211;-81
2023/02/02 04:53:16;;;;;;;5.83;3.70;;;4.40;99.90;;;5.17;100.00;98514.34;5226635;28;20332;-84
2023/02/02 04:55:49;;;;;;;8.87;3.70;;;4.50;99.90;;;5.29;100.00;98510.34;5234414;28;20291;-84
2023/02/02 04:58:23;;;;;;;6.40;4.37;;;4.50;99.90;;;5.15;100.00;98515.84;5230878;28;20224;-83
2023/02/02 05:00:56;;;;;;;6.93;3.63;;;4.50;99.90;;;5.18;100.00;98511.06;5229558;28;20263;-82
2023/02/02 05:03:29;;;;;;;6.10;4.17;;;4.50;99.90;;;5.09;100.00;98511.13;5227131;28;20225;-84
2023/02/02 05:06:03;;;;;;;8.90;3.80;;;4.40;99.90;;;5.13;100.00;98520.78;5222054;28;20296;-82
2023/02/02 05:08:41;;;;;;;5.13;4.20;;;4.40;99.90;;;5.31;100.00;98523.16;5226869;28;20241;-84
2023/02/02 05:11:17;;;;;;;6.00;3.90;;;4.60;99.90;;;5.37;100.00;98527.09;5223695;28;20211;-82
2023/02/02 05:13:52;;;;;;;5.63;3.87;;;4.60;99.90;;;5.26;100.00;98535.41;5220842;28;20292;-84
2023/02/02 05:16:25;;;;;;;8.07;3.90;;;4.60;99.90;;;5.39;100.00;98528.16;5225736;28;20205;-83
2023/02/02 05:19:01;;;;;;;4.33;3.80;;;4.60;99.90;;;5.31;100.00;98526.56;5219508;28;20225;-82
2023/02/02 05:21:34;;;;;;;5.80;4.03;;;4.60;99.90;;;5.33;100.00;98536.88;5229620;28;20201;-83
2023/02/02 05:24:09;;;;;;;5.17;3.77;;;4.60;99.90;;;5.28;100.00;98544.03;5232184;28;20229;-84
2023/02/02 05:26:42;;;;;;;5.27;4.00;;;4.60;99.90;;;5.27;100.00;98541.41;5229163;28;20205;-82
2023/02/02 05:29:15;;;;;;;5.10;3.70;;;4.70;99.90;;;5.41;100.00;98534.25;5232314;28;20201;-81
2023/02/02 05:31:48;;;;;;;6.07;3.90;;;4.80;99.90;;;5.49;100.00;98536.53;5229224;28;20709;-84
2023/02/02 05:34:22;;;;;;;6.80;3.70;;;4.80;99.90;;;5.40;100.00;98534.97;5227785;28;20283;-83
2023/02/02 05:36:55;;;;;;;5.47;3.20;;;4.80;99.90;;;5.40;100.00;98545.13;5226448;28;20203;-83
2023/02/02 05:39:29;;;;;;;5.83;3.80;;;4.70;99.90;;;5.42;100.00;98545.28;5229480;28;20205;-83
2023/02/02 05:42:03;;;;;;;5.63;3.73;;;4.70;99.90;;;5.44;100.00;98543.78;5227756;28;20245;-82
2023/02/02 05:44:36;;;;;;;5.23;3.77;;;4.70;99.90;;;5.43;100.00;98545.38;5226934;28;20197;-82
2023/02/02 05:47:09;;;;;;;5.83;4.07;;;4.70;99.90;;;5.50;100.00;98556.09;5227734;28;20320;-83
2023/02/02 05:49:42;;;;;;;3.93;3.10;;;4.80;99.90;;;5.39;100.00;98553.50;5223166;28;20197;-84
2023/02/02 05:52:20;;;;;;;4.10;3.03;;;4.70;99.90;;;5.52;100.00;98559.63;5229019;28;20700;-84
2023/02/02 05:54:54;;;;;;;6.63;3.47;;;4.70;99.90;;;5.47;100.00;98556.72;5222962;28;20208;-83
2023/02/02 05:57:27;;;;;;;4.33;3.37;;;4.80;99.90;;;5.48;100.00;98562.66;5225416;28;20201;-83
2023/02/02 06:00:00;;;;;;;7.03;3.70;;;4.80;99.90;;;5.40;100.00;98561.97;5231045;28;20265;-84
2023/02/02 06:02:34;;;;;;;5.30;3.67;;;4.70;99.90;;;5.46;100.00;98569.22;5231603;28;20293;-82
2023/02/02 06:05:08;;;;;;;4.03;3.57;;;4.70;99.90;;;5.35;100.00;98561.59;5225670;28;20531;-83
2023/02/02 06:07:41;;;;;;;5.80;3.50;;;4.70;99.90;;;5.47;100.00;98566.84;5225204;28;20288;-82
2023/02/02 06:10:16;;;;;;;6.33;3.50;;;4.70;99.90;;;5.39;100.00;98563.63;5229965;28;20304;-83
2023/02/02 06:12:49;;;;;;;3.80;3.37;;;4.70;99.90;;;5.44;100.00;98566.59;5228973;28;20303;-84
2023/02/02 06:15:22;;;;;;;7.07;3.50;;;4.70;99.90;;;5.48;100.00;98577.88;5225081;28;20253;-83
2023/02/02 06:17:57;;;;;;;6.77;3.90;;;4.70;99.90;;;5.42;100.00;98576.56;5229716;28;20204;-83
2023/02/02 06:20:30;;;;;;;6.83;4.10;;;4.70;99.90;;;5.41;100.00;98577.34;5231561;28;20250;-82
2023/02/02 06:23:04;;;;;;;5.50;3.90;;;4.70;99.90;;;5.39;100.00;98583.03;5228055;28;20219;-83
2023/02/02 06:25:38;;;;;;;4.53;3.70;;;4.70;99.90;;;5.32;100.00;98585.75;5227293;28;20198;-83
2023/02/02 06:28:11;;;;;;;6.00;3.53;;;4.60;99.90;;;5.27;100.00;98594.63;5223606;28;20221;-81
2023/02/02 06:30:44;;;;;;;6.10;3.73;;;4.60;99.90;;;5.25;100.00;98591.94;5222227;28;20212;-82
2023/02/02 06:33:17;;;;;;;7.30;4.00;;;4.60;99.90;;;5.25;100.00;98589.41;5220151;28;20229;-82
2023/02/02 06:35:50;;;;;;;5.90;3.87;;;4.60;99.90;;;5.25;100.00;98588.50;5217728;28;20639;-81
2023/02/02 06:38:24;;;;;;;4.17;3.80;;;4.60;99.90;;;5.42;100.00;98599.38;5217405;28;20193;-83
2023/02/02 06:41:00;;;;;;;5.97;3.47;;;4.70;99.90;;;5.46;100.00;98589.50;5219983;28;20293;-80
2023/02/02 06:43:33;;;;;;;10.23;4.17;;;4.70;99.90;;;5.26;100.00;98605.47;5219163;28;20319;-80
2023/02/02 06:46:06;;;;;;;7.67;3.77;;;4.60;99.90;;;5.19;100.00;98599.88;5217286;28;20210;-81
2023/02/02 06:48:40;;;;;;;6.13;3.87;;;4.60;99.90;;;5.23;100.00;98595.97;5220669;28;20221;-81
2023/02/02 06:51:13;;;;;;;5.17;3.83;;;4.50;99.90;;;5.34;100.00;98605.41;5217191;28;20615;-82
2023/02/02 06:53:48;;;;;;;6.37;4.10;;;4.60;99.90;;;5.30;100.00;98600.84;5221923;28;20228;-82
2023/02/02 06:56:22;;;;;;;5.93;3.80;;;4.60;99.90;;;5.25;100.00;98609.66;5216043;28;20221;-81
2023/02/02 06:58:55;;;;;;;6.90;4.00;;;4.60;99.90;;;5.18;100.00;98605.72;5220421;28;20193;-82
2023/02/02 07:01:28;;;;;;;6.53;3.90;;;4.50;99.90;;;5.27;100.00;98608.16;5220460;28;20209;-82
2023/02/02 07:04:01;;;;;;;6.77;4.17;;;4.50;99.90;;;5.32;100.00;98601.88;5219246;28;20206;-83
2023/02/02 07:06:34;;;;;;;4.67;3.73;;;4.60;99.90;;;5.38;100.00;98596.47;5218793;28;20198;-82
2023/02/02 07:09:08;;;;;;;5.77;3.80;;;4.70;99.90;;;5.28;100.00;98599.81;5218752;28;20348;-83
2023/02/02 07:11:42;;;;;;;3.93;3.57;;;4.60;99.90;;;5.32;100.00;98601.88;5227046;28;20285;-81
2023/02/02 07:14:17;;;;;;;6.00;4.30;;;4.70;99.90;;;5.26;100.00;98595.34;5226774;28;20193;-81
2023/02/02 07:16:50;;;;;;;4.63;4.00;;;4.80;99.90;;;5.22;100.00;98604.31;5223081;28;20241;-83
2023/02/02 07:19:23;;;;;;;7.17;4.13;;;4.70;99.90;;;5.17;100.00;98600.50;5217171;28;20270;-83
2023/02/02 07:21:56;;;;;;;5.27;3.90;;;4.60;99.90;;;5.14;100.00;98600.22;5224886;28;20315;-82
2023/02/02 07:24:29;;;;;;;5.50;4.27;;;4.60;99.90;;;4.97;100.00;98602.09;5224329;28;20224;-82
2023/02/02 07:27:04;;;;;;;8.37;4.70;;;4.50;99.90;;;4.95;100.00;98618.84;5227417;28;20248;-81
2023/02/02 07:29:37;;;;;;;11.13;5.00;;;4.40;99.90;;;4.93;100.00;98622.88;5220081;28;20939;-80
2023/02/02 07:32:10;;;;;;;6.53;3.90;;;4.40;99.90;;;5.04;100.00;98613.72;5223583;28;20229;-81
2023/02/02 07:34:43;;;;;;;5.50;4.40;;;4.40;99.90;;;4.97;100.00;98616.41;5219721;28;20202;-81
2023/02/02 07:37:16;;;;;;;6.10;4.63;;;4.40;99.90;;;4.96;100.00;98617.19;5221164;28;20201;-80
2023/02/02 07:39:49;;;;;;;7.33;4.47;;;4.40;99.90;;;5.05;100.00;98619.66;5225229;28;20207;-80
2023/02/02 07:42:24;;;;;;;8.20;4.47;;;4.40;99.90;;;5.10;100.00;98613.38;5222709;28;20245;-79
2023/02/02 07:44:58;;;;;;;7.13;4.40;;;4.40;99.90;;;4.99;100.00;98619.09;5220390;28;20201;-80
2023/02/02 07:47:56;;;;;;;4.60;4.20;;;4.40;99.90;;;5.04;100.00;98628.91;5220827;28;20261;-81
2023/02/02 07:50:31;;;;;;;5.83;4.60;;;4.40;99.90;;;5.12;100.00;98616.91;5221541;28;20212;-80
2023/02/02 07:53:04;;;;;;;6.77;4.50;;;4.40;99.90;;;5.10;100.00;98613.38;5221891;28;20328;-81
2023/02/02 07:55:37;;;;;;;5.07;4.50;;;4.40;99.90;;;5.05;100.00;98614.59;5226937;28;20285;-81
2023/02/02 07:58:11;;;;;;;6.40;4.57;;;4.40;99.90;;;5.13;100.00;98614.53;5224695;28;20198;-81
2023/02/02 08:00:44;;;;;;;7.27;4.73;;;4.40;99.90;;;5.12;100.00;98596.63;5224421;28;20207;-82
2023/02/02 08:03:17;;;;;;;9.13;4.13;;;4.40;99.90;;;5.01;100.00;98602.38;5224586;28;20229;-81
2023/02/02 08:05:51;;;;;;;4.00;3.60;;;4.40;99.90;;;5.20;100.00;98601.66;5222812;28;20295;-82
2023/02/02 08:08:24;;;;;;;8.40;4.17;;;4.50;99.90;;;5.19;100.00;98599.88;5222708;28;20745;-79
2023/02/02 08:10:57;;;;;;;7.97;4.73;;;4.60;99.90;;;5.23;100.00;98601.03;5218449;28;20571;-79
2023/02/02 08:13:32;;;;;;;7.83;4.67;;;4.60;99.90;;;5.12;100.00;98600.09;5216556;28;20221;-81
2023/02/02 08:16:06;;;;;;;5.67;4.67;;;4.60;99.90;;;5.14;100.00;98602.75;5220993;28;20228;-78
2023/02/02 08:18:39;;;;;;;5.00;4.00;;;4.50;99.90;;;5.30;100.00;98602.50;5216208;28;20740;-77
2023/02/02 08:21:13;;;;;;;6.77;4.17;;;4.60;99.90;;;5.36;100.00;98613.16;5222322;28;20287;-77
2023/02/02 08:23:46;;;;;;;4.40;4.00;;;4.60;99.90;;;5.38;100.00;98612.56;5218884;28;20797;-79
2023/02/02 08:26:22;;;;;;;7.73;4.33;;;4.70;99.90;;;5.37;100.00;98600.63;5216072;28;20202;-79
2023/02/02 08:28:59;;;;;;;4.43;4.03;;;4.70;99.90;;;5.31;100.00;98619.47;5220219;28;20221;-79
2023/02/02 08:31:34;;;;;;;4.73;4.00;;;4.70;99.90;;;5.47;100.00;98624.28;5225890;28;20204;-79
2023/02/02 08:34:08;;;;;;;4.57;4.13;;;4.80;99.90;;;5.50;100.00;98632.16;5229751;28;20197;-80
2023/02/02 08:36:41;;;;;;;6.30;3.70;;;4.80;99.90;;;5.56;100.00;98637.75;5225817;28;20205;-79
2023/02/02 08:39:14;;;;;;;4.97;4.47;;;4.90;99.90;;;5.53;100.00;98637.50;5222640;28;20295;-82
2023/02/02 08:41:47;;;;;;;7.37;4.00;;;4.90;99.90;;;5.48;100.00;98651.41;5224435;28;20317;-82
2023/02/02 08:44:23;;;;;;;4.97;3.57;;;4.90;99.90;;;5.54;100.00;98654.47;5227095;28;20204;-79
2023/02/02 08:46:58;;;;;;;7.13;3.53;;;4.90;99.90;;;5.55;100.00;98657.16;5224461;28;20251;-82
2023/02/02 08:49:31;;;;;;;4.70;3.70;;;4.90;99.90;;;5.65;100.00;98658.84;5226610;28;20231;-81
2023/02/02 08:52:04;;;;;;;6.00;4.03;;;4.90;99.90;;;5.63;100.00;98661.25;5229510;28;20275;-81
2023/02/02 08:54:38;;;;;;;5.17;4.00;;;5.00;99.90;;;5.62;100.00;98659.47;5224130;28;20216;-83
2023/02/02 08:57:11;;;;;;;5.70;3.80;;;5.00;99.90;;;5.65;100.00;98663.94;5223161;28;20210;-82
2023/02/02 08:59:45;;;;;;;9.53;3.83;;;5.00;99.90;;;5.60;100.00;98668.56;5227389;28;20698;-81
2023/02/02 09:02:18;;;;;;;7.23;4.03;;;5.00;99.90;;;5.63;100.00;98663.78;5224660;28;20217;-82
2023/02/02 09:04:51;;;;;;;4.23;3.83;;;5.00;99.90;;;5.71;100.00;98668.66;5224279;28;20206;-79
2023/02/02 09:07:24;;;;;;;7.83;4.50;;;5.00;99.90;;;5.79;100.00;98667.69;5225354;28;20212;-81
2023/02/02 09:09:57;;;;;;;7.47;4.33;;;5.00;99.90;;;5.81;100.00;98669.63;5227773;28;20201;-81
2023/02/02 09:12:30;;;;;;;6.80;4.00;;;5.00;99.90;;;5.82;100.00;98673.91;5228020;28;20233;-81
2023/02/02 09:15:06;;;;;;;5.90;4.10;;;5.10;99.90;;;5.72;100.00;98666.22;5225285;28;20201;-81
2023/02/02 09:17:39;;;;;;;3.83;3.43;;;5.10;99.90;;;5.84;100.00;98666.47;5226479;28;20227;-81
2023/02/02 09:20:13;;;;;;;9.30;4.00;;;5.10;99.90;;;5.91;100.00;98672.94;5222476;28;20216;-81
2023/02/02 09:22:46;;;;;;;5.57;4.10;;;5.10;99.90;;;5.92;100.00;98669.66;5220940;28;20709;-80
2023/02/02 09:25:19;;;;;;;5.37;3.93;;;5.10;99.90;;;5.91;100.00;98673.84;5224931;28;20209;-81
2023/02/02 09:27:52;;;;;;;5.80;3.93;;;5.10;99.90;;;5.81;100.00;98662.00;5222704;28;20242;-81
2023/02/02 09:30:27;;;;;;;6.47;4.23;;;5.10;99.90;;;5.84;100.00;98669.00;5225536;28;20225;-82
2023/02/02 09:33:00;;;;;;;6.20;4.40;;;5.10;99.90;;;5.86;100.00;98665.81;5227576;28;20221;-82
2023/02/02 09:35:33;;;;;;;8.70;4.20;;;5.10;99.90;;;5.81;100.00;98667.06;5225372;28;20280;-81
2023/02/02 09:38:06;;;;;;;5.83;4.63;;;5.10;99.90;;;5.88;100.00;98664.31;5223261;28;20215;-80
2023/02/02 09:40:40;;;;;;;7.10;4.83;;;5.20;99.90;;;5.80;100.00;98666.91;5218629;28;20201;-80
2023/02/02 09:43:33;;;;;;;5.13;4.63;;;5.10;99.90;;;5.82;100.00;98673.91;5227046;28;20232;-80
2023/02/02 09:46:19;;;;;;;6.83;4.50;;;5.20;99.90;;;5.77;100.00;98677.69;5229215;28;20280;-83
2023/02/02 09:49:00;;;;;;;10.43;5.10;;;5.10;99.90;;;5.81;100.00;98667.06;5221652;28;20241;-81
2023/02/02 09:51:40;;;;;;;6.70;4.27;;;5.20;99.90;;;5.70;100.00;98693.13;5227241;28;20935;-82
2023/02/02 09:54:18;;;;;;;5.03;4.57;;;5.20;99.90;;;5.72;100.00;98685.63;5226707;28;20208;-81
2023/02/02 09:56:56;;;;;;;8.10;3.90;;;5.10;99.90;;;5.76;100.00;98686.06;5226368;28;20228;-82
2023/02/02 09:59:34;;;;;;;5.63;4.30;;;5.20;99.90;;;5.75;100.00;98696.97;5225833;28;20773;-80
2023/02/02 10:02:18;;;;;;;6.60;4.80;;;5.20;99.90;;;5.81;100.00;98697.50;5230129;28;20235;-81
2023/02/02 10:04:55;;;;;;;8.57;4.47;;;5.20;99.90;;;5.84;100.00;98701.97;5227124;28;20217;-83
2023/02/02 10:07:35;;;;;;;7.80;4.93;;;5.30;99.90;;;5.81;100.00;98705.13;5228383;28;20284;-84
2023/02/02 10:10:15;;;;;;;10.10;5.03;;;5.20;99.90;;;5.88;100.00;98699.81;5226194;28;20213;-82
2023/02/02 10:12:55;;;;;;;8.70;4.83;;;5.30;99.90;;;5.94;100.00;98696.09;5221154;28;20225;-81
2023/02/02 10:15:37;;;;;;;11.43;5.67;;;5.30;99.90;;;6.03;100.00;98674.06;5227734;28;20207;-82
2023/02/02 10:18:18;;;;;;;7.73;4.93;;;5.40;99.90;;;6.12;100.00;98697.69;5227666;28;20212;-80
2023/02/02 10:20:56;;;;;;;11.30;5.33;;;5.40;99.90;;;6.23;100.00;98689.38;5224775;28;20721;-82
2023/02/02 10:23:33;;;;;;;9.03;5.03;;;5.60;99.90;;;6.22;100.00;98696.88;5228939;28;20221;-83
2023/02/02 10:26:16;;;;;;;7.57;4.40;;;5.60;99.90;;;6.23;100.00;98696.97;5226309;28;20208;-83
2023/02/02 10:29:07;;;;;;;8.90;4.83;;;5.60;99.90;;;6.21;100.00;98693.44;5231176;28;20201;-82
2023/02/02 10:31:46;;;;;;;6.53;5.37;;;5.60;99.90;;;6.36;100.00;98691.34;5225976;28;20211;-81
2023/02/02 10:34:27;;;;;;;10.67;5.20;;;5.70;99.90;;;6.36;100.00;98698.06;5230871;28;20572;-84
2023/02/02 10:37:19;;;;;;;8.00;5.30;;;5.70;99.90;;;6.31;100.00;98696.00;5226199;28;20264;-82
2023/02/02 10:40:13;;;;;;;9.80;6.03;;;5.80;99.90;;;6.23;100.00;98709.69;5226212;28;20289;-83
2023/02/02 10:46:17;;;;;;;8.00;5.00;;;5.70;99.90;;;6.38;100.00;98699.06;5230271;28;20276;-81
2023/02/02 10:48:51;;;;;;;10.60;4.93;;;5.70;99.90;;;6.37;100.00;98698.19;5226449;28;20658;-82
2023/02/02 10:51:28;;;;;;;9.87;4.93;;;5.70;99.90;;;6.39;100.00;98695.78;5227735;28;20224;-81
2023/02/02 10:54:20;;;;;;;10.07;5.63;;;5.80;99.90;;;6.56;100.00;98695.59;5224233;28;20208;-81
2023/02/02 10:56:57;;;;;;;9.57;5.57;;;6.00;99.90;;;6.46;100.00;98701.50;5224935;28;20213;-82
2023/02/02 10:59:36;;;;;;;8.77;4.90;;;6.00;99.90;;;6.49;100.00;98698.34;5219551;28;20846;-81
2023/02/02 11:02:11;;;;;;;9.13;5.10;;;5.90;99.90;;;6.61;100.00;98693.44;5215733;28;20316;-81
2023/02/02 11:07:45;;;;;;;9.67;5.10;;;6.00;99.90;;;6.66;100.00;98710.84;5223017;28;20209;-81
2023/02/02 11:10:18;;;;;;;5.20;4.70;;;6.10;99.90;;;6.74;100.00;98703.91;5220687;28;20823;-81
2023/02/02 11:12:55;;;;;;;8.37;4.80;;;6.10;99.90;;;6.66;100.00;98718.47;5225036;28;20224;-82
2023/02/02 11:15:30;;;;;;;8.00;4.47;;;6.10;99.90;;;6.63;100.00;98722.41;5221805;28;20197;-81
2023/02/02 11:18:15;;;;;;;5.57;4.43;;;6.10;99.90;;;6.60;100.00;98717.94;5223850;28;20203;-80
2023/02/02 11:20:48;;;;;;;11.60;5.70;;;6.10;99.90;;;6.61;100.00;98721.38;5219054;28;20230;-82